Terminal Aerodrome Forecast
Issued by NWS

Home | Current Version | Previous Version | Text Only | Print | Product List | Glossary On
Versions: 1 2 3 4 5 6 7 8 9 10 11 12 13 14 15 16 17 18 19 20 21 22 23 24 25 26 27 28 29 30 31 32 33 34 35 36 37 38 39 40 41 42 43 44 45 46 47 48 49 50
000
FTUS43 KSGF 181136 CCA
TAFJLN
TAF COR
KJLN 181136Z 1812/1912 13006KT 6SM BR OVC005
     FM181500 16015G20KT P6SM OVC007
     FM181900 16014G22KT P6SM OVC020
     FM190000 15010KT 4SM -RA OVC010 WS020/19040KT
     FM190700 34018G28KT 4SM -RA OVC007
     FM190900 34021G35KT 4SM -RASN OVC011=

USA.gov is the U.S. government's official web portal to all federal, state and local government web resources and services.